Time;durP1;ratioP1;P1;durP2;ratioP2;P2;SDS_P1;SDS_P2;PMS_P1;PMS_P2;Temp;Humidity;BMP_temperature;BMP_pressure;BME280_temperature;BME280_humidity;BME280_pressure;Samples;Min_cycle;Max_cycle;Signal;HPM_P1;HPM_P2
2023/11/23 00:00:53;;;;;;;8.40;6.80;;;;;;;-3.81;100.00;99877.04;109664;1251;66651;-67
2023/11/23 00:03:20;;;;;;;9.00;7.60;;;;;;;-3.83;100.00;99867.07;109637;1250;72539;-66
2023/11/23 00:05:46;;;;;;;8.50;7.20;;;;;;;-3.83;100.00;99857.02;109575;1251;60245;-66
2023/11/23 00:08:13;;;;;;;9.40;7.00;;;;;;;-3.83;100.00;99862.58;109656;1250;58892;-67
2023/11/23 00:10:40;;;;;;;9.70;7.90;;;;;;;-3.85;100.00;99865.64;109669;1250;74360;-66
2023/11/23 00:13:06;;;;;;;7.90;7.10;;;;;;;-3.86;100.00;99861.17;109688;1251;59075;-66
2023/11/23 00:15:32;;;;;;;8.40;6.70;;;;;;;-3.85;100.00;99859.38;109616;1250;59049;-66
2023/11/23 00:17:59;;;;;;;7.60;6.50;;;;;;;-3.84;100.00;99851.04;109649;1250;59022;-66
2023/11/23 00:20:25;;;;;;;7.10;6.40;;;;;;;-3.85;100.00;99859.72;109677;1250;59215;-66
2023/11/23 00:22:52;;;;;;;8.90;7.80;;;;;;;-3.85;100.00;99858.34;109668;1250;58968;-66
2023/11/23 00:25:18;;;;;;;10.70;7.80;;;;;;;-3.85;100.00;99855.73;109652;1250;68313;-66
2023/11/23 00:27:45;;;;;;;8.10;6.90;;;;;;;-3.84;100.00;99850.86;109653;1250;58970;-66
2023/11/23 00:30:12;;;;;;;6.20;5.60;;;;;;;-3.86;100.00;99843.32;109666;1251;60055;-66
2023/11/23 00:32:39;;;;;;;7.40;6.60;;;;;;;-3.89;100.00;99848.81;109620;1250;58841;-66
2023/11/23 00:35:06;;;;;;;7.50;6.70;;;;;;;-3.92;100.00;99842.89;109659;1250;59446;-66
2023/11/23 00:37:33;;;;;;;7.80;6.80;;;;;;;-3.94;100.00;99835.03;109401;1251;66576;-66
2023/11/23 00:40:05;;;;;;;8.30;6.80;;;;;;;-3.97;100.00;99840.20;109610;1251;71326;-66
2023/11/23 00:42:32;;;;;;;7.00;6.40;;;;;;;-3.98;100.00;99852.02;109608;1251;59242;-66
2023/11/23 00:44:58;;;;;;;6.60;5.60;;;;;;;-3.98;100.00;99858.60;109602;1251;58925;-66
2023/11/23 00:47:26;;;;;;;7.70;6.10;;;;;;;-4.00;100.00;99854.00;109660;1250;76263;-66
2023/11/23 00:49:53;;;;;;;6.80;6.10;;;;;;;-4.01;100.00;99852.35;109626;1251;68194;-66
2023/11/23 00:52:20;;;;;;;7.00;5.80;;;;;;;-4.04;100.00;99844.52;109655;1250;71420;-66
2023/11/23 00:54:47;;;;;;;5.90;5.30;;;;;;;-4.08;100.00;99839.16;109656;1250;60258;-66
2023/11/23 00:57:13;;;;;;;6.50;5.90;;;;;;;-4.14;100.00;99837.17;109667;1250;60483;-66
2023/11/23 00:59:40;;;;;;;8.60;7.00;;;;;;;-4.18;100.00;99828.02;109674;1250;73244;-66
2023/11/23 01:02:06;;;;;;;6.80;6.20;;;;;;;-4.24;100.00;99826.23;109727;1250;59517;-66
2023/11/23 01:04:34;;;;;;;7.30;6.20;;;;;;;-4.32;100.00;99814.46;109484;1252;72662;-66
2023/11/23 01:07:01;;;;;;;6.30;5.70;;;;;;;-4.40;100.00;99812.21;109619;1250;59647;-67
2023/11/23 01:09:28;;;;;;;7.80;6.10;;;;;;;-4.47;100.00;99805.77;109610;1250;59115;-66
2023/11/23 01:11:55;;;;;;;12.50;8.10;;;;;;;-4.53;100.00;99803.11;109667;1250;73461;-66
2023/11/23 01:14:21;;;;;;;8.00;7.20;;;;;;;-4.61;100.00;99800.86;109703;1250;67700;-66
2023/11/23 01:16:48;;;;;;;9.20;7.00;;;;;;;-4.66;100.00;99794.02;109607;1250;58996;-66
2023/11/23 01:19:14;;;;;;;10.00;7.50;;;;;;;-4.72;100.00;99786.14;109599;1250;60207;-67
2023/11/23 01:21:41;;;;;;;11.10;8.90;;;;;;;-4.76;100.00;99786.48;109692;1250;60367;-66
2023/11/23 01:24:08;;;;;;;8.60;7.00;;;;;;;-4.80;100.00;99783.39;109625;1250;74699;-66
2023/11/23 01:26:36;;;;;;;13.10;8.00;;;;;;;-4.82;100.00;99774.48;109664;1250;66060;-66
2023/11/23 01:29:02;;;;;;;10.40;7.70;;;;;;;-4.82;100.00;99759.94;109570;1251;71142;-66
2023/11/23 01:31:29;;;;;;;9.90;7.50;;;;;;;-4.81;100.00;99747.95;109545;1250;61998;-66
2023/11/23 01:33:55;;;;;;;9.00;7.60;;;;;;;-4.79;100.00;99743.02;109695;1251;60627;-66
2023/11/23 01:36:23;;;;;;;12.00;8.70;;;;;;;-4.78;100.00;99730.52;109538;1251;73171;-65
2023/11/23 01:38:50;;;;;;;15.70;9.40;;;;;;;-4.76;100.00;99723.48;109556;1251;67778;-66
2023/11/23 01:41:16;;;;;;;14.20;9.50;;;;;;;-4.72;100.00;99719.33;109684;1251;72642;-66
2023/11/23 01:43:46;;;;;;;13.70;9.20;;;;;;;-4.70;100.00;99715.27;109626;1250;58938;-66
2023/11/23 01:46:13;;;;;;;11.70;7.70;;;;;;;-4.71;100.00;99714.44;109616;1251;59048;-66
2023/11/23 01:48:40;;;;;;;14.90;9.30;;;;;;;-4.72;100.00;99711.92;109616;1250;73110;-66
2023/11/23 01:51:08;;;;;;;21.40;11.30;;;;;;;-4.76;100.00;99698.96;109713;1250;68727;-66
2023/11/23 01:53:35;;;;;;;23.30;11.10;;;;;;;-4.79;100.00;99698.04;109522;1251;71146;-66
2023/11/23 01:56:02;;;;;;;21.20;11.40;;;;;;;-4.80;100.00;99692.04;109634;1251;62169;-67
2023/11/23 01:58:29;;;;;;;20.10;10.00;;;;;;;-4.82;100.00;99684.32;109654;1250;60167;-66
2023/11/23 02:00:56;;;;;;;14.40;8.70;;;;;;;-4.81;100.00;99684.81;109569;1251;75148;-66
2023/11/23 02:03:22;;;;;;;11.70;8.00;;;;;;;-4.79;100.00;99689.71;109650;1250;67825;-66
2023/11/23 02:05:49;;;;;;;12.70;8.20;;;;;;;-4.76;100.00;99696.52;109579;1250;71327;-66
2023/11/23 02:08:16;;;;;;;11.70;8.30;;;;;;;-4.75;100.00;99698.21;109607;1250;61106;-66
2023/11/23 02:10:42;;;;;;;10.50;7.80;;;;;;;-4.78;100.00;99702.13;109528;1251;59085;-66
2023/11/23 02:13:09;;;;;;;9.60;7.20;;;;;;;-4.81;100.00;99695.72;109601;1251;74448;-67
2023/11/23 02:15:36;;;;;;;8.30;6.40;;;;;;;-4.83;100.00;99685.27;109554;1251;59020;-66
2023/11/23 02:18:07;;;;;;;7.80;6.80;;;;;;;-4.89;100.00;99682.92;109670;1250;71294;-66
2023/11/23 02:20:33;;;;;;;8.90;7.30;;;;;;;-4.94;100.00;99685.77;109556;1251;60372;-66
2023/11/23 02:23:00;;;;;;;8.70;7.20;;;;;;;-5.00;100.00;99682.88;109659;1250;59070;-66
2023/11/23 02:25:27;;;;;;;11.50;8.70;;;;;;;-5.02;100.00;99676.91;109589;1250;74520;-66
2023/11/23 02:27:53;;;;;;;12.80;8.50;;;;;;;-5.01;100.00;99666.52;109615;1250;66437;-66
2023/11/23 02:30:20;;;;;;;12.00;9.70;;;;;;;-4.98;100.00;99668.98;109658;1250;71164;-67
2023/11/23 02:32:48;;;;;;;11.60;9.90;;;;;;;-4.96;100.00;99672.15;109561;1250;60526;-67
2023/11/23 02:35:14;;;;;;;10.90;9.50;;;;;;;-4.92;100.00;99659.20;109572;1251;60925;-67
2023/11/23 02:37:41;;;;;;;11.70;8.20;;;;;;;-4.87;100.00;99651.35;109599;1250;59076;-67
2023/11/23 02:40:08;;;;;;;11.40;8.90;;;;;;;-4.82;100.00;99651.79;109669;1250;58935;-66
2023/11/23 02:42:34;;;;;;;9.40;7.90;;;;;;;-4.78;100.00;99647.63;109630;1251;71284;-67
2023/11/23 02:45:01;;;;;;;8.10;6.70;;;;;;;-4.73;100.00;99648.47;109597;1250;60010;-66
2023/11/23 02:47:27;;;;;;;8.00;7.00;;;;;;;-4.70;100.00;99647.61;109658;1250;59407;-66
2023/11/23 02:49:54;;;;;;;8.90;7.20;;;;;;;-4.70;100.00;99652.44;109603;1250;74421;-66
2023/11/23 02:52:20;;;;;;;9.00;7.70;;;;;;;-4.68;100.00;99656.14;109679;1250;58993;-67
2023/11/23 02:54:47;;;;;;;9.00;7.30;;;;;;;-4.66;100.00;99651.05;109642;1250;59052;-67
2023/11/23 02:57:14;;;;;;;7.80;7.00;;;;;;;-4.64;100.00;99638.48;109646;1251;59537;-67
2023/11/23 02:59:40;;;;;;;10.40;7.50;;;;;;;-4.61;100.00;99635.92;109656;1250;59003;-67
2023/11/23 03:02:07;;;;;;;10.30;8.00;;;;;;;-4.58;100.00;99635.26;109706;1251;73266;-67
2023/11/23 03:04:33;;;;;;;11.50;8.60;;;;;;;-4.58;100.00;99625.20;109655;1250;67630;-67
2023/11/23 03:07:00;;;;;;;9.60;7.50;;;;;;;-4.58;100.00;99620.53;109548;1251;70712;-67
2023/11/23 03:09:27;;;;;;;9.30;7.50;;;;;;;-4.57;100.00;99610.66;109626;1250;60320;-67
2023/11/23 03:11:53;;;;;;;8.30;6.80;;;;;;;-4.58;100.00;99604.63;109641;1250;59084;-67
2023/11/23 03:14:20;;;;;;;9.30;7.40;;;;;;;-4.59;100.00;99596.87;109629;1250;73147;-67
2023/11/23 03:16:48;;;;;;;8.70;7.20;;;;;;;-4.60;100.00;99589.67;109708;1250;67615;-67
2023/11/23 03:19:14;;;;;;;8.90;7.00;;;;;;;-4.63;100.00;99583.06;109662;1251;72415;-67
2023/11/23 03:21:41;;;;;;;8.90;7.60;;;;;;;-4.65;100.00;99580.89;109509;1251;60203;-67
2023/11/23 03:24:08;;;;;;;8.70;7.30;;;;;;;-4.64;100.00;99582.06;109647;1250;58976;-67
2023/11/23 03:26:35;;;;;;;8.90;7.40;;;;;;;-4.64;100.00;99575.80;109706;1250;74317;-67
2023/11/23 03:29:03;;;;;;;8.90;7.10;;;;;;;-4.64;100.00;99567.20;109523;1250;67765;-67
2023/11/23 03:31:29;;;;;;;8.10;7.00;;;;;;;-4.68;100.00;99562.00;109654;1250;71625;-67
2023/11/23 03:33:56;;;;;;;7.80;6.90;;;;;;;-4.71;100.00;99562.16;109625;1250;59070;-67
2023/11/23 03:36:22;;;;;;;8.30;7.20;;;;;;;-4.75;100.00;99556.14;109609;1250;58889;-66
2023/11/23 03:38:49;;;;;;;9.00;7.40;;;;;;;-4.81;100.00;99557.11;109589;1251;72257;-66
2023/11/23 03:41:15;;;;;;;9.70;8.00;;;;;;;-4.86;100.00;99560.83;109659;1251;58921;-66
2023/11/23 03:43:42;;;;;;;8.80;7.30;;;;;;;-4.91;100.00;99561.23;109651;1250;60152;-66
2023/11/23 03:46:08;;;;;;;10.00;7.90;;;;;;;-4.94;100.00;99554.98;109602;1250;59029;-66
2023/11/23 03:48:35;;;;;;;9.00;7.40;;;;;;;-4.97;100.00;99541.26;109681;1250;59567;-66
2023/11/23 03:51:02;;;;;;;9.90;6.60;;;;;;;-4.98;100.00;99540.99;109613;1250;59339;-66
2023/11/23 03:53:29;;;;;;;8.60;6.10;;;;;;;-4.99;100.00;99529.95;109628;1250;68715;-67
2023/11/23 03:55:56;;;;;;;8.00;7.20;;;;;;;-5.01;100.00;99515.69;109669;1249;73241;-67
2023/11/23 03:58:22;;;;;;;7.40;6.70;;;;;;;-5.04;100.00;99508.02;109633;1250;58932;-67
2023/11/23 04:00:49;;;;;;;7.10;5.70;;;;;;;-5.07;100.00;99501.95;109611;1250;58901;-67
2023/11/23 04:03:16;;;;;;;8.70;6.30;;;;;;;-5.12;100.00;99495.77;109605;1251;73421;-67
2023/11/23 04:05:43;;;;;;;9.50;6.60;;;;;;;-5.17;100.00;99485.66;109607;1251;67551;-67
2023/11/23 04:08:09;;;;;;;8.50;7.40;;;;;;;-5.21;100.00;99485.52;109587;1251;71425;-66
2023/11/23 04:10:36;;;;;;;7.70;6.10;;;;;;;-5.24;100.00;99481.70;109598;1250;58978;-66
2023/11/23 04:13:03;;;;;;;7.50;6.50;;;;;;;-5.25;100.00;99478.45;109642;1251;58889;-66
2023/11/23 04:15:30;;;;;;;7.70;6.00;;;;;;;-5.27;100.00;99475.41;109549;1250;73060;-67
2023/11/23 04:17:56;;;;;;;6.50;5.90;;;;;;;-5.29;100.00;99467.90;109702;1250;66661;-66
2023/11/23 04:20:23;;;;;;;6.60;5.40;;;;;;;-5.33;100.00;99449.05;109552;1251;72886;-66
2023/11/23 04:22:49;;;;;;;6.60;5.70;;;;;;;-5.36;100.00;99424.50;109594;1250;60526;-65
2023/11/23 04:25:16;;;;;;;7.50;6.10;;;;;;;-5.41;100.00;99423.69;109638;1250;59045;-66
2023/11/23 04:27:43;;;;;;;6.30;5.60;;;;;;;-5.44;100.00;99428.55;109604;1250;74511;-67
2023/11/23 04:30:10;;;;;;;8.10;6.00;;;;;;;-5.45;100.00;99424.95;109594;1250;67829;-67
2023/11/23 04:32:37;;;;;;;7.50;6.40;;;;;;;-5.45;100.00;99436.36;109607;1250;72466;-65
2023/11/23 04:35:04;;;;;;;8.80;6.30;;;;;;;-5.45;100.00;99440.50;109611;1250;59423;-65
2023/11/23 04:37:31;;;;;;;7.90;5.90;;;;;;;-5.44;100.00;99435.11;109667;1251;60312;-64
2023/11/23 04:39:58;;;;;;;7.30;6.00;;;;;;;-5.44;100.00;99432.99;109619;1250;74932;-65
2023/11/23 04:42:24;;;;;;;6.90;5.70;;;;;;;-5.45;100.00;99434.95;109641;1250;68182;-65
2023/11/23 04:44:51;;;;;;;9.80;7.30;;;;;;;-5.45;100.00;99435.66;109592;1250;72816;-62
2023/11/23 04:47:18;;;;;;;8.80;6.70;;;;;;;-5.47;100.00;99422.80;109542;1251;59290;-62
2023/11/23 04:49:44;;;;;;;6.90;6.00;;;;;;;-5.50;100.00;99421.02;109647;1251;59383;-63
2023/11/23 04:52:11;;;;;;;8.90;6.70;;;;;;;-5.51;100.00;99425.23;109615;1250;73146;-63
2023/11/23 04:54:37;;;;;;;12.90;7.20;;;;;;;-5.52;100.00;99423.00;109612;1251;58922;-65
2023/11/23 04:57:04;;;;;;;10.60;6.70;;;;;;;-5.50;100.00;99421.05;109591;1250;59767;-65
2023/11/23 04:59:31;;;;;;;11.50;7.80;;;;;;;-5.49;100.00;99413.02;109602;1251;59530;-64
2023/11/23 05:01:57;;;;;;;7.50;6.00;;;;;;;-5.49;100.00;99415.44;109583;1251;58848;-63
2023/11/23 05:04:24;;;;;;;9.40;6.40;;;;;;;-5.51;100.00;99411.04;109608;1250;73140;-63
2023/11/23 05:06:51;;;;;;;9.60;7.20;;;;;;;-5.55;100.00;99414.88;109626;1250;67794;-67
2023/11/23 05:09:17;;;;;;;9.50;7.20;;;;;;;-5.60;100.00;99410.95;109552;1251;71459;-66
2023/11/23 05:11:45;;;;;;;10.30;7.60;;;;;;;-5.63;100.00;99403.30;109607;1251;58838;-64
2023/11/23 05:14:11;;;;;;;9.30;7.00;;;;;;;-5.64;100.00;99392.47;109705;1251;60055;-66
2023/11/23 05:16:38;;;;;;;9.10;6.20;;;;;;;-5.63;100.00;99377.92;109589;1250;74471;-65
2023/11/23 05:19:05;;;;;;;10.90;8.00;;;;;;;-5.61;100.00;99365.56;109664;1251;66755;-65
2023/11/23 05:21:32;;;;;;;11.30;7.70;;;;;;;-5.60;100.00;99351.52;109685;1251;59113;-66
2023/11/23 05:23:59;;;;;;;9.00;6.20;;;;;;;-5.59;100.00;99337.82;109639;1251;59377;-66
2023/11/23 05:26:28;;;;;;;9.20;6.70;;;;;;;-5.59;100.00;99331.09;109705;1250;60148;-72
2023/11/23 05:28:55;;;;;;;8.20;6.00;;;;;;;-5.61;100.00;99321.83;109691;1250;73229;-67
2023/11/23 05:31:22;;;;;;;8.40;6.20;;;;;;;-5.63;100.00;99309.32;109709;1251;58944;-66
2023/11/23 05:33:48;;;;;;;8.40;6.10;;;;;;;-5.65;100.00;99295.92;109619;1250;59019;-68
2023/11/23 05:36:15;;;;;;;7.00;5.30;;;;;;;-5.67;100.00;99288.44;109634;1251;61286;-70
2023/11/23 05:38:41;;;;;;;7.20;6.40;;;;;;;-5.68;100.00;99301.45;109631;1250;58866;-68
2023/11/23 05:41:08;;;;;;;6.70;6.00;;;;;;;-5.69;100.00;99301.81;109557;1251;74451;-68
2023/11/23 05:43:35;;;;;;;5.70;5.10;;;;;;;-5.66;100.00;99296.52;109617;1251;59029;-67
2023/11/23 05:46:01;;;;;;;7.20;5.60;;;;;;;-5.64;100.00;99297.10;109625;1250;72647;-69
2023/11/23 05:48:29;;;;;;;7.60;5.50;;;;;;;-5.62;100.00;99298.04;109564;1251;60114;-62
2023/11/23 05:50:55;;;;;;;7.70;5.40;;;;;;;-5.61;100.00;99303.20;109659;1251;59321;-63
2023/11/23 05:53:22;;;;;;;7.00;5.80;;;;;;;-5.59;100.00;99298.62;109653;1251;58852;-61
2023/11/23 05:55:48;;;;;;;5.80;5.20;;;;;;;-5.56;100.00;99301.05;109555;1251;59027;-64
2023/11/23 05:58:15;;;;;;;5.40;4.50;;;;;;;-5.50;100.00;99302.11;109603;1251;59149;-64
2023/11/23 06:00:42;;;;;;;5.80;4.70;;;;;;;-5.40;100.00;99301.10;109553;1250;59206;-62
2023/11/23 06:03:08;;;;;;;7.70;5.20;;;;;;;-5.28;100.00;99303.77;109578;1250;59961;-63
2023/11/23 06:05:35;;;;;;;7.40;5.60;;;;;;;-5.17;100.00;99308.23;109637;1251;73148;-63
2023/11/23 06:08:03;;;;;;;6.10;4.90;;;;;;;-5.11;100.00;99300.99;109692;1251;68021;-64
2023/11/23 06:10:33;;;;;;;4.60;4.20;;;;;;;-5.06;100.00;99286.39;109624;1251;72700;-62
2023/11/23 06:12:59;;;;;;;4.40;3.50;;;;;;;-5.04;100.00;99270.05;109555;1251;58959;-61
2023/11/23 06:15:26;;;;;;;5.40;4.10;;;;;;;-5.05;100.00;99252.30;109626;1254;59571;-65
2023/11/23 06:17:52;;;;;;;5.30;4.80;;;;;;;-5.07;100.00;99238.39;109592;1250;73973;-61
2023/11/23 06:20:37;;;;;;;4.90;3.90;;;;;;;-5.08;100.00;99233.62;109631;1250;67820;-61
2023/11/23 06:23:03;;;;;;;5.40;3.50;;;;;;;-5.08;100.00;99235.50;109522;1251;70119;-63
2023/11/23 06:25:30;;;;;;;4.30;3.90;;;;;;;-5.06;100.00;99228.31;109593;1251;59150;-65
2023/11/23 06:27:56;;;;;;;3.90;3.50;;;;;;;-5.04;100.00;99213.16;109645;1251;58852;-69
2023/11/23 06:30:40;;;;;;;4.80;4.00;;;;;;;-5.03;100.00;99197.16;109635;1249;73328;-63
2023/11/23 06:33:06;;;;;;;5.50;3.90;;;;;;;-5.02;100.00;99180.71;109651;1251;66731;-67
2023/11/23 06:35:33;;;;;;;5.00;4.20;;;;;;;-5.04;100.00;99162.44;109558;1251;72598;-69
2023/11/23 06:38:00;;;;;;;5.00;4.00;;;;;;;-5.04;100.00;99151.23;109492;1251;61974;-66
2023/11/23 06:40:28;;;;;;;4.60;3.60;;;;;;;-5.04;100.00;99137.21;109483;1251;59305;-65
2023/11/23 06:42:55;;;;;;;5.40;4.00;;;;;;;-5.01;100.00;99133.42;109495;1251;75173;-65
2023/11/23 06:45:21;;;;;;;5.10;4.60;;;;;;;-4.97;100.00;99123.37;109506;1252;59266;-65
2023/11/23 06:47:48;;;;;;;4.80;4.20;;;;;;;-4.94;100.00;99116.64;109500;1250;59027;-64
2023/11/23 06:50:14;;;;;;;6.40;4.80;;;;;;;-4.89;100.00;99116.55;109520;1251;60123;-66
2023/11/23 06:52:41;;;;;;;7.40;5.30;;;;;;;-4.84;100.00;99107.63;109528;1251;60523;-65
2023/11/23 06:55:09;;;;;;;5.80;4.80;;;;;;;-4.79;100.00;99098.88;109436;1251;74886;-65
2023/11/23 06:57:46;;;;;;;6.80;5.50;;;;;;;-4.74;100.00;99104.42;109480;1251;66376;-65
2023/11/23 07:00:22;;;;;;;8.40;6.40;;;;;;;-4.67;100.00;99123.27;109478;1251;71449;-65
2023/11/23 07:02:59;;;;;;;6.50;5.80;;;;;;;-4.60;100.00;99117.83;109455;1251;61981;-65
2023/11/23 07:05:26;;;;;;;8.30;6.90;;;;;;;-4.50;100.00;99102.08;109457;1251;59035;-64
2023/11/23 07:07:53;;;;;;;8.20;6.40;;;;;;;-4.41;100.00;99082.64;109493;1251;73291;-64
2023/11/23 07:10:20;;;;;;;6.00;5.00;;;;;;;-4.30;100.00;99071.66;109536;1251;67869;-63
2023/11/23 07:12:49;;;;;;;5.80;5.30;;;;;;;-4.22;100.00;99058.23;109612;1251;72438;-64
2023/11/23 07:15:17;;;;;;;6.40;5.70;;;;;;;-4.17;100.00;99047.55;109584;1250;60179;-64
2023/11/23 07:17:43;;;;;;;6.20;5.30;;;;;;;-4.15;100.00;99039.80;109621;1250;60257;-64
2023/11/23 07:20:19;;;;;;;5.90;5.30;;;;;;;-4.12;100.00;99030.77;109619;1250;73805;-65
2023/11/23 07:22:45;;;;;;;5.50;5.00;;;;;;;-4.09;100.00;99014.80;109670;1251;66832;-64
2023/11/23 07:25:13;;;;;;;6.40;5.80;;;;;;;-4.07;100.00;99000.16;109629;1251;71704;-65
2023/11/23 07:27:40;;;;;;;6.20;5.60;;;;;;;-4.04;100.00;98993.55;109593;1251;58956;-64
2023/11/23 07:30:07;;;;;;;6.50;5.70;;;;;;;-4.01;100.00;98985.95;109586;1251;59364;-64
2023/11/23 07:32:34;;;;;;;8.90;6.40;;;;;;;-4.00;100.00;98973.25;109619;1251;73885;-63
2023/11/23 07:35:02;;;;;;;6.50;5.90;;;;;;;-3.97;100.00;98975.29;109642;1251;66748;-64
2023/11/23 07:37:30;;;;;;;6.80;5.80;;;;;;;-3.93;100.00;98980.79;109616;1250;72537;-63
2023/11/23 07:39:56;;;;;;;8.80;7.40;;;;;;;-3.90;100.00;98978.51;109588;1251;58948;-64
2023/11/23 07:42:25;;;;;;;8.30;6.60;;;;;;;-3.82;100.00;98983.59;109566;1251;60996;-64
2023/11/23 07:44:51;;;;;;;7.40;6.60;;;;;;;-3.76;100.00;98980.73;109682;1251;73356;-64
2023/11/23 07:47:19;;;;;;;8.40;7.40;;;;;;;-3.68;100.00;98973.52;109591;1251;67675;-64
2023/11/23 07:49:46;;;;;;;7.60;6.80;;;;;;;-3.60;100.00;98971.29;109618;1251;72544;-64
2023/11/23 07:52:13;;;;;;;7.00;6.10;;;;;;;-3.51;100.00;98972.77;109588;1251;59607;-63
2023/11/23 07:54:40;;;;;;;7.20;6.50;;;;;;;-3.43;100.00;98965.21;109659;1251;60157;-63
2023/11/23 07:57:06;;;;;;;7.40;6.60;;;;;;;-3.36;100.00;98956.62;109599;1251;73538;-65
2023/11/23 07:59:36;;;;;;;7.90;7.00;;;;;;;-3.32;100.00;98952.73;109638;1252;66407;-64
2023/11/23 08:02:04;;;;;;;8.20;7.30;;;;;;;-3.30;100.00;98951.20;109611;1251;72673;-63
2023/11/23 08:04:31;;;;;;;9.10;7.30;;;;;;;-3.26;100.00;98942.08;109596;1251;61839;-63
2023/11/23 08:06:57;;;;;;;7.80;7.00;;;;;;;-3.24;100.00;98942.32;109638;1250;60290;-63
2023/11/23 08:09:24;;;;;;;8.50;7.60;;;;;;;-3.24;100.00;98950.31;109659;1250;74290;-64
2023/11/23 08:11:56;;;;;;;6.90;6.20;;;;;;;-3.26;100.00;98941.58;109636;1250;67925;-64
2023/11/23 08:14:22;;;;;;;7.60;6.80;;;;;;;-3.29;100.00;98928.95;109606;1254;71129;-65
2023/11/23 08:16:49;;;;;;;8.80;7.90;;;;;;;-3.34;100.00;98930.10;109646;1250;60247;-65
2023/11/23 08:19:15;;;;;;;8.30;7.40;;;;;;;-3.37;100.00;98925.41;109651;1251;58956;-64
2023/11/23 08:21:42;;;;;;;9.90;8.20;;;;;;;-3.36;100.00;98922.98;109641;1250;74401;-63
2023/11/23 08:24:09;;;;;;;10.10;8.30;;;;;;;-3.35;100.00;98912.31;109613;1251;59014;-64
2023/11/23 08:26:36;;;;;;;10.20;8.40;;;;;;;-3.33;100.00;98909.79;109611;1250;72650;-65
2023/11/23 08:29:05;;;;;;;11.30;9.10;;;;;;;-3.33;100.00;98904.92;109599;1251;59964;-64
2023/11/23 08:31:31;;;;;;;12.20;9.30;;;;;;;-3.34;100.00;98903.10;109645;1251;60170;-63
2023/11/23 08:33:58;;;;;;;12.90;11.20;;;;;;;-3.34;100.00;98897.66;109669;1250;74465;-64
2023/11/23 08:36:24;;;;;;;17.80;11.40;;;;;;;-3.34;100.00;98893.70;109584;1251;65559;-64
2023/11/23 08:38:51;;;;;;;12.30;9.40;;;;;;;-3.32;100.00;98882.48;109677;1251;58983;-63
2023/11/23 08:41:18;;;;;;;12.30;9.50;;;;;;;-3.27;100.00;98865.84;109577;1250;61032;-64
2023/11/23 08:43:47;;;;;;;11.50;9.10;;;;;;;-3.21;100.00;98845.52;109659;1251;60220;-64
2023/11/23 08:46:14;;;;;;;10.40;9.30;;;;;;;-3.16;100.00;98834.62;109595;1251;73016;-64
2023/11/23 08:48:41;;;;;;;12.30;10.00;;;;;;;-3.13;100.00;98835.95;109704;1251;67735;-63
2023/11/23 08:51:07;;;;;;;13.70;9.10;;;;;;;-3.10;100.00;98815.30;109680;1251;72769;-63
2023/11/23 08:53:34;;;;;;;15.40;11.40;;;;;;;-3.09;100.00;98814.02;109571;1251;59890;-64
2023/11/23 08:56:01;;;;;;;11.50;8.70;;;;;;;-3.06;100.00;98801.54;109661;1253;59135;-62
2023/11/23 08:58:28;;;;;;;15.50;10.50;;;;;;;-3.02;100.00;98795.15;109653;1251;72404;-63
2023/11/23 09:00:55;;;;;;;10.80;9.60;;;;;;;-2.96;100.00;98788.32;109641;1250;66808;-62
2023/11/23 09:03:22;;;;;;;10.80;9.00;;;;;;;-2.89;100.00;98784.39;109608;1250;72738;-64
2023/11/23 09:05:49;;;;;;;13.90;9.80;;;;;;;-2.84;100.00;98777.09;109604;1251;59324;-63
2023/11/23 09:08:15;;;;;;;10.50;9.30;;;;;;;-2.79;100.00;98765.65;109711;1251;59577;-64
2023/11/23 09:10:42;;;;;;;12.80;10.10;;;;;;;-2.74;100.00;98758.31;109575;1255;58956;-64
2023/11/23 09:13:09;;;;;;;11.30;9.00;;;;;;;-2.69;100.00;98746.04;109650;1251;67031;-64
2023/11/23 09:15:36;;;;;;;11.00;8.40;;;;;;;-2.67;100.00;98735.98;109650;1251;72419;-64
2023/11/23 09:18:03;;;;;;;10.30;9.20;;;;;;;-2.64;100.00;98726.57;109541;1250;59918;-64
2023/11/23 09:20:30;;;;;;;11.00;9.70;;;;;;;-2.60;100.00;98719.34;109726;1251;59014;-63
2023/11/23 09:22:56;;;;;;;12.10;10.60;;;;;;;-2.55;100.00;98712.89;109679;1250;74513;-63
2023/11/23 09:25:24;;;;;;;11.30;8.60;;;;;;;-2.49;100.00;98710.78;109616;1250;67934;-62
2023/11/23 09:27:51;;;;;;;12.90;11.50;;;;;;;-2.46;100.00;98702.05;109661;1250;72476;-64
2023/11/23 09:30:18;;;;;;;11.90;10.60;;;;;;;-2.42;100.00;98691.54;109567;1250;59361;-63
2023/11/23 09:32:44;;;;;;;12.70;11.30;;;;;;;-2.36;100.00;98678.75;109680;1250;60212;-64
2023/11/23 09:35:11;;;;;;;11.60;10.00;;;;;;;-2.28;100.00;98669.34;109594;1250;74449;-64
2023/11/23 09:37:38;;;;;;;14.00;10.40;;;;;;;-2.21;100.00;98660.64;109703;1251;67885;-63
2023/11/23 09:40:07;;;;;;;12.20;10.80;;;;;;;-2.14;100.00;98650.77;109645;1251;71912;-64
2023/11/23 09:42:37;;;;;;;15.10;12.60;;;;;;;-2.08;100.00;98642.63;109581;1250;59436;-63
2023/11/23 09:45:06;;;;;;;11.90;10.70;;;;;;;-2.01;100.00;98633.98;109579;1251;60452;-63
2023/11/23 09:47:34;;;;;;;15.80;10.80;;;;;;;-1.97;100.00;98623.23;109547;1251;73452;-64
2023/11/23 09:50:01;;;;;;;12.10;10.80;;;;;;;-1.93;100.00;98614.07;109693;1250;67941;-63
2023/11/23 09:52:27;;;;;;;11.70;10.50;;;;;;;-1.90;100.00;98606.02;109685;1251;71305;-64
2023/11/23 09:54:56;;;;;;;12.00;10.80;;;;;;;-1.86;100.00;98597.19;109515;1251;173224;-64
2023/11/23 09:57:23;;;;;;;11.70;10.10;;;;;;;-1.82;100.00;98590.36;109549;1251;60044;-64
2023/11/23 09:59:50;;;;;;;11.70;10.10;;;;;;;-1.77;100.00;98584.55;109565;1251;74587;-64
2023/11/23 10:02:20;;;;;;;12.40;9.80;;;;;;;-1.71;100.00;98576.48;109696;1250;58998;-65
2023/11/23 10:04:50;;;;;;;10.80;9.30;;;;;;;-1.67;100.00;98562.77;109649;1251;72497;-64
2023/11/23 10:07:16;;;;;;;10.30;9.20;;;;;;;-1.66;100.00;98551.40;109600;1251;59744;-64
2023/11/23 10:09:43;;;;;;;10.00;9.10;;;;;;;-1.66;100.00;98531.92;109623;1251;60332;-64
2023/11/23 10:12:10;;;;;;;9.40;8.50;;;;;;;-1.65;100.00;98534.27;109711;1251;73410;-65
2023/11/23 10:14:39;;;;;;;11.00;9.50;;;;;;;-1.64;100.00;98531.06;109637;1251;66352;-65
2023/11/23 10:17:06;;;;;;;10.60;9.60;;;;;;;-1.60;100.00;98520.27;109617;1251;72468;-64
2023/11/23 10:19:33;;;;;;;9.40;8.40;;;;;;;-1.56;100.00;98511.16;109602;1254;58941;-64
2023/11/23 10:22:02;;;;;;;10.10;9.10;;;;;;;-1.56;100.00;98501.52;109611;1250;59118;-64
2023/11/23 10:24:31;;;;;;;11.80;10.00;;;;;;;-1.54;100.00;98492.21;109648;1250;74514;-64
2023/11/23 10:26:58;;;;;;;11.10;9.50;;;;;;;-1.52;100.00;98477.40;109658;1251;67660;-65
2023/11/23 10:29:32;;;;;;;10.20;9.20;;;;;;;-1.46;100.00;98475.02;109596;1251;71804;-64
2023/11/23 10:32:01;;;;;;;10.40;9.40;;;;;;;-1.40;100.00;98460.29;109638;1251;60168;-63
2023/11/23 10:34:31;;;;;;;12.30;10.70;;;;;;;-1.34;100.00;98449.56;109664;1251;60260;-64
2023/11/23 10:36:57;;;;;;;11.70;10.00;;;;;;;-1.31;100.00;98437.27;109585;1251;74454;-65
2023/11/23 10:39:24;;;;;;;11.70;9.80;;;;;;;-1.29;100.00;98438.35;109541;1251;67661;-64
2023/11/23 10:41:53;;;;;;;12.10;10.60;;;;;;;-1.28;100.00;98428.15;109517;1251;72711;-64
2023/11/23 10:44:20;;;;;;;11.50;10.30;;;;;;;-1.24;100.00;98419.91;109599;1251;60093;-64
2023/11/23 10:46:50;;;;;;;12.50;10.50;;;;;;;-1.21;100.00;98403.46;109646;1251;59022;-65
2023/11/23 10:49:17;;;;;;;12.10;9.90;;;;;;;-1.18;100.00;98393.01;109592;1251;73692;-64
2023/11/23 10:51:44;;;;;;;11.60;10.40;;;;;;;-1.17;100.00;98377.23;109640;1251;66620;-64
2023/11/23 10:54:11;;;;;;;10.90;9.80;;;;;;;-1.16;100.00;98368.45;109409;1251;72466;-64
2023/11/23 10:56:38;;;;;;;10.40;9.30;;;;;;;-1.18;100.00;98355.89;109625;1250;61076;-64
2023/11/23 10:59:10;;;;;;;11.20;10.00;;;;;;;-1.18;100.00;98346.54;109541;1251;59490;-64
2023/11/23 11:01:36;;;;;;;15.20;10.40;;;;;;;-1.18;100.00;98332.23;109603;1251;73457;-64
2023/11/23 11:04:04;;;;;;;13.90;9.20;;;;;;;-1.15;100.00;98322.61;109395;1251;68080;-65
2023/11/23 11:06:41;;;;;;;9.90;8.90;;;;;;;-1.13;100.00;98307.52;109542;1251;70331;-64
2023/11/23 11:09:15;;;;;;;12.20;10.70;;;;;;;-1.12;100.00;98290.33;109643;1251;59554;-63
2023/11/23 11:11:53;;;;;;;11.40;10.00;;;;;;;-1.11;100.00;98286.21;109623;1250;60514;-64